Terminal Aerodrome Forecast
Issued by NWS Sioux Falls, SD

Home | Current Version | Previous Version | Text Only | Print | Product List | Glossary On
Versions: 1 2 3 4 5 6 7 8 9 10 11 12
000
FTUS43 KFSD 031120
TAFSUX
TAF
KSUX 031120Z 0312/0412 VRB04KT P6SM SKC
     FM031600 27008KT P6SM SCT250
     FM031900 28012G18KT P6SM SCT250
     FM040000 28010KT P6SM SKC
     FM040300 27004KT P6SM SCT070
     FM040500 36011KT P6SM SKC=

USA.gov is the U.S. government's official web portal to all federal, state and local government web resources and services.